Time;durP1;ratioP1;P1;durP2;ratioP2;P2;SDS_P1;SDS_P2;PMS_P1;PMS_P2;Temp;Humidity;BMP_temperature;BMP_pressure;BME280_temperature;BME280_humidity;BME280_pressure;Samples;Min_cycle;Max_cycle;Signal;HPM_P1;HPM_P2
2024/01/16 00:01:57;;;;;;;0.90;0.70;;;21.70;66.00;;;;;;6135135;23;20503;-86
2024/01/16 00:04:26;;;;;;;0.90;0.63;;;21.70;66.00;;;;;;6134426;23;20949;-88
2024/01/16 00:06:53;;;;;;;0.90;0.70;;;21.70;66.00;;;;;;6137000;23;20486;-87
2024/01/16 00:09:20;;;;;;;1.00;0.73;;;21.70;66.00;;;;;;6142101;23;20402;-86
2024/01/16 00:11:47;;;;;;;1.10;0.90;;;21.60;66.60;;;;;;6113424;23;20439;-88
2024/01/16 00:14:14;;;;;;;1.50;0.70;;;21.70;66.00;;;;;;6132676;23;21449;-86
2024/01/16 00:16:44;;;;;;;1.30;0.80;;;21.80;66.10;;;;;;6130809;23;20414;-90
2024/01/16 00:19:11;;;;;;;1.00;0.73;;;21.70;66.00;;;;;;6131616;23;20506;-85
2024/01/16 00:21:41;;;;;;;1.50;0.70;;;21.70;65.90;;;;;;6130424;23;20396;-86
2024/01/16 00:24:08;;;;;;;0.93;0.70;;;21.70;65.80;;;;;;6133576;23;20822;-84
2024/01/16 00:26:35;;;;;;;1.37;0.80;;;21.70;66.00;;;;;;6132199;23;21105;-83
2024/01/16 00:29:02;;;;;;;1.00;0.70;;;21.70;66.00;;;;;;6132867;23;20677;-84
2024/01/16 00:31:28;;;;;;;0.90;0.60;;;21.70;65.90;;;;;;6130991;23;20411;-83
2024/01/16 00:33:55;;;;;;;0.90;0.70;;;21.70;65.70;;;;;;6135041;23;21006;-83
2024/01/16 00:36:22;;;;;;;1.20;0.80;;;21.70;65.70;;;;;;6131147;23;20395;-85
2024/01/16 00:38:50;;;;;;;2.60;0.80;;;21.70;65.60;;;;;;6131751;23;20436;-83
2024/01/16 00:41:17;;;;;;;1.10;0.80;;;21.60;65.20;;;;;;6131952;23;20408;-80
2024/01/16 00:43:44;;;;;;;4.83;1.00;;;21.70;65.50;;;;;;6134364;23;20403;-83
2024/01/16 00:46:11;;;;;;;1.15;0.63;;;21.60;65.50;;;;;;6131787;23;20498;-80
2024/01/16 00:48:38;;;;;;;7.70;0.80;;;21.60;65.60;;;;;;6133949;23;20168;-80
2024/01/16 00:51:05;;;;;;;1.30;0.83;;;21.60;65.80;;;;;;6135117;23;20907;-80
2024/01/16 00:53:32;;;;;;;0.90;0.60;;;21.60;65.60;;;;;;6136950;23;21136;-80
2024/01/16 00:56:00;;;;;;;1.10;0.80;;;21.60;65.70;;;;;;6134916;23;20422;-80
2024/01/16 00:58:27;;;;;;;1.73;1.20;;;21.60;65.70;;;;;;6136110;23;20412;-81
2024/01/16 01:00:53;;;;;;;1.10;0.80;;;21.60;65.70;;;;;;6135883;23;21267;-80
2024/01/16 01:03:20;;;;;;;1.00;0.80;;;21.60;65.90;;;;;;6132661;23;20176;-81
2024/01/16 01:05:47;;;;;;;2.13;0.80;;;21.60;65.70;;;;;;6136456;23;20888;-81
2024/01/16 01:08:14;;;;;;;1.10;0.80;;;21.60;65.70;;;;;;6135786;23;20412;-81
2024/01/16 01:10:40;;;;;;;1.08;0.77;;;21.60;65.80;;;;;;6137258;23;20404;-81
2024/01/16 01:13:08;;;;;;;1.93;1.20;;;21.60;65.70;;;;;;6135510;23;20187;-82
2024/01/16 01:15:35;;;;;;;1.40;0.90;;;21.60;65.70;;;;;;6136901;23;20407;-80
2024/01/16 01:18:02;;;;;;;2.00;0.90;;;21.60;65.90;;;;;;6134873;23;20400;-81
2024/01/16 01:20:29;;;;;;;1.00;0.70;;;21.60;65.70;;;;;;6134552;23;20439;-80
2024/01/16 01:22:55;;;;;;;1.60;1.00;;;21.60;65.70;;;;;;6135989;23;20406;-80
2024/01/16 01:25:22;;;;;;;1.10;0.67;;;21.60;65.90;;;;;;6136043;23;20407;-81
2024/01/16 01:27:49;;;;;;;1.00;0.80;;;21.60;65.90;;;;;;6132943;23;20407;-80
2024/01/16 01:30:18;;;;;;;1.65;0.80;;;21.60;65.60;;;;;;6134190;23;20400;-80
2024/01/16 01:32:44;;;;;;;1.65;0.70;;;21.60;66.00;;;;;;6135102;23;20186;-80
2024/01/16 01:35:12;;;;;;;0.90;0.60;;;21.60;65.60;;;;;;6133836;23;20778;-81
2024/01/16 01:37:39;;;;;;;1.30;0.80;;;21.60;65.70;;;;;;6133475;23;20527;-81
2024/01/16 01:40:07;;;;;;;1.00;0.70;;;21.60;65.70;;;;;;6136946;23;20499;-81
2024/01/16 01:42:33;;;;;;;1.20;0.70;;;21.60;65.70;;;;;;6137454;23;21484;-81
2024/01/16 01:45:00;;;;;;;0.90;0.60;;;21.50;65.60;;;;;;6138113;23;20400;-81
2024/01/16 01:47:28;;;;;;;1.00;0.70;;;21.50;65.70;;;;;;6135500;23;20404;-81
2024/01/16 01:49:55;;;;;;;1.57;0.90;;;21.50;65.60;;;;;;6137888;23;20408;-81
2024/01/16 01:52:23;;;;;;;1.00;0.70;;;21.50;65.60;;;;;;6136399;23;20469;-81
2024/01/16 01:54:52;;;;;;;0.80;0.60;;;21.50;65.60;;;;;;6136561;23;20543;-81
2024/01/16 01:57:19;;;;;;;1.95;0.80;;;21.50;65.70;;;;;;6135023;23;20403;-81
2024/01/16 01:59:46;;;;;;;1.07;0.70;;;21.50;65.60;;;;;;6136519;23;20526;-81
2024/01/16 02:02:13;;;;;;;1.00;0.80;;;21.50;65.70;;;;;;6134104;23;20417;-81
2024/01/16 02:04:46;;;;;;;0.80;0.60;;;21.50;65.70;;;;;;6135698;23;20530;-81
2024/01/16 02:07:14;;;;;;;1.20;0.77;;;21.50;65.90;;;;;;6134632;23;20464;-81
2024/01/16 02:09:41;;;;;;;1.17;0.73;;;21.50;65.70;;;;;;6135992;23;20418;-81
2024/01/16 02:12:08;;;;;;;1.20;0.80;;;21.50;65.70;;;;;;6135158;23;20654;-81
2024/01/16 02:14:35;;;;;;;1.00;0.70;;;21.50;65.70;;;;;;6132996;23;20180;-81
2024/01/16 02:17:02;;;;;;;0.90;0.70;;;21.50;65.80;;;;;;6134702;23;20177;-80
2024/01/16 02:19:28;;;;;;;1.10;0.73;;;21.40;65.60;;;;;;6134674;23;21057;-81
2024/01/16 02:22:01;;;;;;;0.90;0.70;;;21.50;65.70;;;;;;6135660;23;20403;-80
2024/01/16 02:24:29;;;;;;;1.33;0.70;;;21.40;65.70;;;;;;6132212;23;20384;-81
2024/01/16 02:26:56;;;;;;;1.00;0.75;;;21.40;65.60;;;;;;6135667;23;20407;-80
2024/01/16 02:29:22;;;;;;;1.00;0.70;;;21.40;65.60;;;;;;6132933;23;20176;-81
2024/01/16 02:31:49;;;;;;;1.10;0.80;;;21.40;65.60;;;;;;6131824;23;20178;-81
2024/01/16 02:34:16;;;;;;;1.07;0.70;;;21.40;65.60;;;;;;6135316;23;20561;-81
2024/01/16 02:36:43;;;;;;;1.00;0.70;;;21.40;65.60;;;;;;6133859;23;20411;-81
2024/01/16 02:39:10;;;;;;;1.00;0.70;;;21.40;65.70;;;;;;6133098;23;20523;-81
2024/01/16 02:41:38;;;;;;;1.20;0.70;;;21.40;65.70;;;;;;6134341;23;21323;-81
2024/01/16 02:44:05;;;;;;;1.00;0.77;;;21.40;65.70;;;;;;6134864;23;20507;-81
2024/01/16 02:46:32;;;;;;;1.30;0.97;;;21.40;65.70;;;;;;6133747;23;20859;-80
2024/01/16 02:48:59;;;;;;;1.00;0.80;;;21.40;65.70;;;;;;6133090;23;20524;-80
2024/01/16 02:51:25;;;;;;;0.93;0.70;;;21.40;65.70;;;;;;6133063;23;20183;-81
2024/01/16 02:53:52;;;;;;;0.90;0.73;;;21.40;65.70;;;;;;6134364;23;20557;-79
2024/01/16 02:56:19;;;;;;;0.98;0.70;;;21.40;65.70;;;;;;6134118;23;20725;-80
2024/01/16 02:58:47;;;;;;;1.20;0.73;;;21.40;65.70;;;;;;6134732;23;20176;-80
2024/01/16 03:01:15;;;;;;;1.10;0.80;;;21.40;66.20;;;;;;6134309;23;20188;-81
2024/01/16 03:03:42;;;;;;;1.00;0.82;;;21.30;65.70;;;;;;6133501;23;20880;-80
2024/01/16 03:06:08;;;;;;;1.17;0.87;;;21.30;65.70;;;;;;6134558;23;20626;-81
2024/01/16 03:08:35;;;;;;;0.98;0.70;;;21.30;65.80;;;;;;6133783;23;20408;-80
2024/01/16 03:11:02;;;;;;;0.80;0.60;;;21.30;65.70;;;;;;6133603;23;21209;-81
2024/01/16 03:13:29;;;;;;;1.42;0.70;;;21.30;65.80;;;;;;6132590;23;20239;-81
2024/01/16 03:15:57;;;;;;;0.90;0.65;;;21.30;65.80;;;;;;6133456;23;20756;-81
2024/01/16 03:18:24;;;;;;;0.90;0.73;;;21.30;65.70;;;;;;6133139;23;20208;-80
2024/01/16 03:20:51;;;;;;;0.98;0.70;;;21.30;65.70;;;;;;6132487;23;20193;-80
2024/01/16 03:23:17;;;;;;;0.95;0.75;;;21.30;65.70;;;;;;6132415;23;20181;-80
2024/01/16 03:25:44;;;;;;;1.60;0.70;;;21.30;65.70;;;;;;6133093;23;20202;-80
2024/01/16 03:28:11;;;;;;;0.90;0.70;;;21.30;65.70;;;;;;6132146;23;20203;-81
2024/01/16 03:30:38;;;;;;;1.42;0.73;;;21.30;65.70;;;;;;6132193;23;20177;-81
2024/01/16 03:33:06;;;;;;;1.10;0.70;;;21.30;65.70;;;;;;6133373;23;20183;-80
2024/01/16 03:35:33;;;;;;;1.00;0.70;;;21.30;65.70;;;;;;6133349;23;20396;-80
2024/01/16 03:37:59;;;;;;;1.30;0.90;;;21.30;65.70;;;;;;6132786;23;20177;-80
2024/01/16 03:40:26;;;;;;;1.10;0.70;;;21.30;65.70;;;;;;6132768;23;20197;-81
2024/01/16 03:42:54;;;;;;;1.10;0.68;;;21.30;65.80;;;;;;6131591;23;20195;-80
2024/01/16 03:45:21;;;;;;;1.00;0.70;;;21.30;65.80;;;;;;6132456;23;20188;-80
2024/01/16 03:47:49;;;;;;;0.90;0.70;;;21.30;65.80;;;;;;6134119;23;20748;-80
2024/01/16 03:50:17;;;;;;;2.05;1.08;;;21.20;65.70;;;;;;6135033;23;20172;-80
2024/01/16 03:52:43;;;;;;;1.20;0.80;;;21.20;65.70;;;;;;6134311;23;20653;-80
2024/01/16 03:55:10;;;;;;;1.13;0.75;;;21.20;65.70;;;;;;6131303;23;20187;-81
2024/01/16 03:57:37;;;;;;;1.05;0.82;;;21.20;65.70;;;;;;6132846;23;20536;-82
2024/01/16 04:00:05;;;;;;;1.00;0.70;;;21.20;65.70;;;;;;6133964;23;20196;-81
2024/01/16 04:02:32;;;;;;;1.00;0.70;;;21.20;65.70;;;;;;6132354;23;20630;-81
2024/01/16 04:04:59;;;;;;;1.35;0.80;;;21.20;65.60;;;;;;6135410;23;20237;-82
2024/01/16 04:07:27;;;;;;;1.00;0.70;;;21.20;65.70;;;;;;6131535;23;20188;-82
2024/01/16 04:09:53;;;;;;;1.10;0.70;;;21.20;65.70;;;;;;6133120;23;20177;-81
2024/01/16 04:12:20;;;;;;;1.30;0.80;;;21.20;65.70;;;;;;6134289;23;20176;-81
2024/01/16 04:14:47;;;;;;;1.00;0.80;;;21.20;65.70;;;;;;6132348;23;20172;-81
2024/01/16 04:17:14;;;;;;;0.90;0.70;;;21.20;65.70;;;;;;6134585;23;20529;-81
2024/01/16 04:19:40;;;;;;;0.95;0.77;;;21.20;65.70;;;;;;6130413;23;20176;-81
2024/01/16 04:22:07;;;;;;;1.00;0.85;;;21.20;65.70;;;;;;6133752;23;20501;-80
2024/01/16 04:24:35;;;;;;;1.00;0.80;;;21.20;65.70;;;;;;6134628;23;20176;-81
2024/01/16 04:27:02;;;;;;;0.82;0.60;;;21.20;65.70;;;;;;6135960;23;20983;-81
2024/01/16 04:29:29;;;;;;;1.38;0.70;;;21.20;65.70;;;;;;6135156;23;20520;-81
2024/01/16 04:31:56;;;;;;;0.90;0.70;;;21.20;65.80;;;;;;6134532;23;20263;-81
2024/01/16 04:34:23;;;;;;;1.00;0.70;;;21.20;65.80;;;;;;6135161;23;20180;-81
2024/01/16 04:36:50;;;;;;;1.00;0.73;;;21.20;65.80;;;;;;6134096;23;20225;-81
2024/01/16 04:39:17;;;;;;;1.52;0.70;;;21.20;65.80;;;;;;6137102;23;20184;-81
2024/01/16 04:41:45;;;;;;;1.35;0.88;;;21.20;65.70;;;;;;6134374;23;20200;-81
2024/01/16 04:44:12;;;;;;;1.00;0.63;;;21.20;65.80;;;;;;6134956;23;20601;-81
2024/01/16 04:46:39;;;;;;;1.35;1.25;;;21.20;65.80;;;;;;6133358;23;20172;-81
2024/01/16 04:49:05;;;;;;;0.95;0.70;;;21.10;65.70;;;;;;6135342;23;20504;-80
2024/01/16 04:51:32;;;;;;;0.90;0.68;;;21.10;65.70;;;;;;6134189;23;21015;-80
2024/01/16 04:53:59;;;;;;;1.00;0.65;;;21.10;65.80;;;;;;6135603;23;20177;-81
2024/01/16 04:56:25;;;;;;;1.10;0.73;;;21.10;65.70;;;;;;6135736;23;20163;-81
2024/01/16 04:58:53;;;;;;;1.10;0.80;;;21.20;65.70;;;;;;6136233;23;20480;-81
2024/01/16 05:01:19;;;;;;;1.55;0.70;;;21.20;65.70;;;;;;6135105;23;20192;-80
2024/01/16 05:03:46;;;;;;;1.30;0.80;;;21.20;65.70;;;;;;6136069;23;20179;-81
2024/01/16 05:06:16;;;;;;;1.08;0.70;;;21.10;65.60;;;;;;6134768;23;20895;-81
2024/01/16 05:08:43;;;;;;;0.93;0.60;;;21.10;65.70;;;;;;6132463;23;20646;-81
2024/01/16 05:11:10;;;;;;;1.00;0.70;;;21.10;65.70;;;;;;6135180;23;20176;-81
2024/01/16 05:13:37;;;;;;;0.90;0.60;;;21.10;65.60;;;;;;6135127;23;20415;-81
2024/01/16 05:16:07;;;;;;;1.10;0.80;;;21.10;65.70;;;;;;6134420;23;20176;-81
2024/01/16 05:18:34;;;;;;;0.90;0.60;;;21.10;65.70;;;;;;6133576;23;20172;-81
2024/01/16 05:21:02;;;;;;;1.15;0.80;;;21.10;65.70;;;;;;6136950;23;20196;-81
2024/01/16 05:23:28;;;;;;;1.02;0.85;;;21.10;65.70;;;;;;6134830;23;20178;-81
2024/01/16 05:25:55;;;;;;;1.00;0.70;;;21.10;65.70;;;;;;6133801;23;20209;-81
2024/01/16 05:28:22;;;;;;;1.00;0.70;;;21.10;65.70;;;;;;6136380;23;20303;-80
2024/01/16 05:30:49;;;;;;;1.52;0.77;;;21.10;66.50;;;;;;6136722;23;20168;-81
2024/01/16 05:33:17;;;;;;;1.30;0.80;;;21.10;65.70;;;;;;6133242;23;20645;-81
2024/01/16 05:35:43;;;;;;;1.10;0.70;;;21.10;65.80;;;;;;6135343;23;21040;-81
2024/01/16 05:38:12;;;;;;;1.20;0.80;;;21.10;65.70;;;;;;6132568;23;20176;-81
2024/01/16 05:40:38;;;;;;;1.10;0.70;;;21.10;65.70;;;;;;6133483;23;20192;-81
2024/01/16 05:43:05;;;;;;;1.00;0.70;;;21.10;65.70;;;;;;6136531;23;20204;-81
2024/01/16 05:45:32;;;;;;;1.05;0.80;;;21.10;65.70;;;;;;6133570;23;20187;-81
2024/01/16 05:47:59;;;;;;;1.00;0.70;;;21.10;65.70;;;;;;6127927;23;20187;-81
2024/01/16 05:50:27;;;;;;;0.98;0.70;;;21.10;65.70;;;;;;6135820;23;20179;-81
2024/01/16 05:52:54;;;;;;;0.90;0.60;;;21.00;65.60;;;;;;6134443;23;20655;-81
2024/01/16 05:55:21;;;;;;;1.10;0.77;;;21.10;65.70;;;;;;6135034;23;20188;-81
2024/01/16 05:57:48;;;;;;;0.88;0.60;;;21.00;65.60;;;;;;6133841;23;20188;-81
2024/01/16 06:00:16;;;;;;;0.80;0.60;;;21.00;65.60;;;;;;6134258;23;20176;-82
2024/01/16 06:02:44;;;;;;;0.88;0.60;;;21.00;65.60;;;;;;6132166;23;20179;-81
2024/01/16 06:05:11;;;;;;;1.00;0.90;;;21.00;65.60;;;;;;6132460;23;20176;-81
2024/01/16 06:07:39;;;;;;;1.00;0.70;;;21.00;65.60;;;;;;6132524;23;20510;-81
2024/01/16 06:10:07;;;;;;;1.00;0.80;;;21.00;65.60;;;;;;6133763;23;20173;-81
2024/01/16 06:12:35;;;;;;;0.90;0.65;;;21.00;65.60;;;;;;6133436;23;20622;-81
2024/01/16 06:15:02;;;;;;;1.00;0.60;;;21.00;65.60;;;;;;6133640;23;20807;-80
2024/01/16 06:17:29;;;;;;;0.90;0.70;;;21.00;65.60;;;;;;6129013;23;20820;-81
2024/01/16 06:19:56;;;;;;;1.10;0.80;;;21.00;65.60;;;;;;6132727;23;20165;-81
2024/01/16 06:22:23;;;;;;;1.13;0.80;;;21.00;65.60;;;;;;6133232;23;20196;-80
2024/01/16 06:24:51;;;;;;;1.35;0.80;;;21.00;65.70;;;;;;6133923;23;20639;-80
2024/01/16 06:27:19;;;;;;;0.90;0.70;;;21.00;65.70;;;;;;6135079;23;20293;-81
2024/01/16 06:29:46;;;;;;;0.82;0.60;;;21.00;65.70;;;;;;6134372;23;20172;-80
2024/01/16 06:32:13;;;;;;;1.23;0.80;;;21.00;65.70;;;;;;6134546;23;20182;-80
2024/01/16 06:34:40;;;;;;;1.52;0.70;;;21.00;65.70;;;;;;6136072;23;20180;-80
2024/01/16 06:37:06;;;;;;;1.05;0.70;;;21.00;65.70;;;;;;6132751;23;20178;-81
2024/01/16 06:39:34;;;;;;;1.45;0.90;;;21.00;65.90;;;;;;6133852;23;20293;-80
2024/01/16 06:42:04;;;;;;;1.15;0.70;;;21.00;65.80;;;;;;6132579;23;20190;-80
2024/01/16 06:44:31;;;;;;;1.05;0.68;;;21.00;65.80;;;;;;6134427;23;20880;-80
2024/01/16 06:46:57;;;;;;;1.33;0.82;;;21.00;65.70;;;;;;6132998;23;20722;-80
2024/01/16 06:49:24;;;;;;;1.00;0.70;;;21.00;65.90;;;;;;6133208;23;20173;-80
2024/01/16 06:51:51;;;;;;;0.90;0.70;;;21.00;65.80;;;;;;6133676;23;20181;-81
2024/01/16 06:54:20;;;;;;;0.90;0.60;;;21.00;65.70;;;;;;6133808;23;20190;-80
2024/01/16 06:56:48;;;;;;;0.80;0.60;;;21.00;66.60;;;;;;6131049;23;20182;-81
2024/01/16 06:59:19;;;;;;;2.00;0.80;;;21.00;65.70;;;;;;6133122;23;20183;-82
2024/01/16 07:01:46;;;;;;;1.08;0.80;;;21.00;65.80;;;;;;6106025;23;20201;-82
2024/01/16 07:04:14;;;;;;;1.20;0.85;;;20.90;65.60;;;;;;6135754;23;20187;-82
2024/01/16 07:06:40;;;;;;;1.00;0.70;;;20.90;66.50;;;;;;6133965;23;20176;-82
2024/01/16 07:09:10;;;;;;;1.00;0.70;;;20.90;65.60;;;;;;6134968;23;20397;-81
2024/01/16 07:11:37;;;;;;;1.20;0.85;;;20.90;65.70;;;;;;6132626;23;20179;-81
2024/01/16 07:14:04;;;;;;;1.00;0.80;;;20.90;65.60;;;;;;6134355;23;20179;-81
2024/01/16 07:16:32;;;;;;;1.20;0.90;;;20.90;65.50;;;;;;6133433;23;20280;-81
2024/01/16 07:18:59;;;;;;;0.80;0.60;;;20.90;65.60;;;;;;6134604;23;20560;-82
2024/01/16 07:21:26;;;;;;;1.30;0.80;;;20.90;65.60;;;;;;6131912;23;20842;-81
2024/01/16 07:23:52;;;;;;;0.90;0.73;;;20.90;65.70;;;;;;6131471;23;20189;-81
2024/01/16 07:26:19;;;;;;;1.00;0.80;;;20.90;65.70;;;;;;6133445;23;20384;-81
2024/01/16 07:28:47;;;;;;;1.10;0.80;;;20.90;65.70;;;;;;6132770;23;20176;-81
2024/01/16 07:31:14;;;;;;;1.00;0.70;;;20.90;65.80;;;;;;6131239;23;20183;-80
2024/01/16 07:33:42;;;;;;;0.90;0.70;;;20.90;65.80;;;;;;6132443;23;20622;-81
2024/01/16 07:36:10;;;;;;;0.90;0.70;;;20.90;65.80;;;;;;6131227;23;20391;-81
2024/01/16 07:38:37;;;;;;;1.00;0.70;;;20.90;65.80;;;;;;6132883;23;20183;-82
2024/01/16 07:41:04;;;;;;;1.00;0.70;;;21.00;66.00;;;;;;6134853;23;20199;-80
2024/01/16 07:43:31;;;;;;;0.98;0.80;;;20.90;65.90;;;;;;6133532;23;20191;-81
2024/01/16 07:45:58;;;;;;;1.00;0.80;;;20.90;65.90;;;;;;6130312;23;20488;-80
2024/01/16 07:48:25;;;;;;;1.10;0.70;;;20.90;65.90;;;;;;6129239;23;20215;-82
2024/01/16 07:50:53;;;;;;;0.98;0.82;;;20.90;65.90;;;;;;6132862;23;20454;-81
2024/01/16 07:53:20;;;;;;;1.00;0.70;;;20.90;65.90;;;;;;6134486;23;20196;-82
2024/01/16 07:55:47;;;;;;;1.00;0.80;;;20.90;65.90;;;;;;6132575;23;20184;-82
2024/01/16 07:58:14;;;;;;;0.98;0.70;;;21.00;66.00;;;;;;6131474;23;20176;-82
2024/01/16 08:00:42;;;;;;;0.90;0.60;;;20.90;65.90;;;;;;6133214;23;20291;-82
2024/01/16 08:03:11;;;;;;;0.80;0.60;;;20.90;66.00;;;;;;6135986;23;20916;-82
2024/01/16 08:05:37;;;;;;;1.25;0.70;;;21.00;66.00;;;;;;6135849;23;20172;-81
2024/01/16 08:08:09;;;;;;;1.10;0.70;;;20.90;65.90;;;;;;6137010;23;20177;-81
2024/01/16 08:10:36;;;;;;;0.90;0.60;;;21.00;66.00;;;;;;6108834;23;20177;-83
2024/01/16 08:13:03;;;;;;;1.10;0.75;;;21.00;66.00;;;;;;6136444;23;20429;-80
2024/01/16 08:15:29;;;;;;;1.00;0.70;;;21.00;66.00;;;;;;6133913;23;20940;-80
2024/01/16 08:17:56;;;;;;;1.17;0.75;;;20.90;65.90;;;;;;6133243;23;20185;-81
2024/01/16 08:20:23;;;;;;;0.88;0.63;;;20.90;65.90;;;;;;6132128;23;21072;-80
2024/01/16 08:22:50;;;;;;;1.00;0.80;;;20.90;65.90;;;;;;6140113;23;20203;-82
2024/01/16 08:25:18;;;;;;;0.90;0.60;;;20.90;66.10;;;;;;6137005;23;20181;-81
2024/01/16 08:27:45;;;;;;;0.90;0.70;;;20.90;66.00;;;;;;6135450;23;20197;-80
2024/01/16 08:30:13;;;;;;;1.00;0.80;;;20.90;66.10;;;;;;6133036;23;20176;-80
2024/01/16 08:32:39;;;;;;;0.93;0.73;;;20.90;66.00;;;;;;6133614;23;20258;-81
2024/01/16 08:35:08;;;;;;;1.48;0.80;;;20.90;66.40;;;;;;6133921;23;20174;-79
2024/01/16 08:37:35;;;;;;;0.90;0.60;;;21.00;66.60;;;;;;6135751;23;20182;-79
2024/01/16 08:40:03;;;;;;;0.90;0.70;;;20.90;66.60;;;;;;6136305;23;20175;-82
2024/01/16 08:42:31;;;;;;;1.00;0.75;;;20.90;66.50;;;;;;6135303;23;20196;-79
2024/01/16 08:44:58;;;;;;;1.08;0.70;;;20.90;66.30;;;;;;6136779;23;20690;-78
2024/01/16 08:47:25;;;;;;;1.35;0.95;;;20.90;66.20;;;;;;6135894;23;20617;-79
2024/01/16 08:49:52;;;;;;;1.00;0.77;;;20.90;66.20;;;;;;6135039;23;20934;-81
2024/01/16 08:52:19;;;;;;;0.90;0.70;;;20.90;66.30;;;;;;6132595;23;20183;-81
2024/01/16 08:54:45;;;;;;;4.43;0.80;;;20.90;66.30;;;;;;6134949;23;20484;-79
2024/01/16 08:57:13;;;;;;;1.10;0.77;;;20.90;66.60;;;;;;6134042;23;20656;-79
2024/01/16 08:59:41;;;;;;;0.90;0.63;;;20.90;66.50;;;;;;6129487;23;20268;-81
2024/01/16 09:02:08;;;;;;;1.55;0.90;;;20.90;66.50;;;;;;6128526;23;20251;-80
2024/01/16 09:04:35;;;;;;;1.17;0.83;;;20.90;66.50;;;;;;6132528;23;20922;-78
2024/01/16 09:07:04;;;;;;;1.00;0.70;;;20.90;66.50;;;;;;6134213;23;20467;-79
2024/01/16 09:09:31;;;;;;;1.20;0.80;;;20.90;66.50;;;;;;6139660;23;20600;-79
2024/01/16 09:11:59;;;;;;;1.05;0.70;;;20.90;66.60;;;;;;6138827;23;20396;-79
2024/01/16 09:14:25;;;;;;;0.98;0.70;;;20.90;66.50;;;;;;6134974;23;20177;-79
2024/01/16 09:16:55;;;;;;;1.30;0.70;;;20.90;66.40;;;;;;6136490;23;20211;-78
2024/01/16 09:19:21;;;;;;;1.25;0.98;;;20.90;66.40;;;;;;6135816;23;20185;-79
2024/01/16 09:21:48;;;;;;;1.20;0.70;;;20.90;66.40;;;;;;6135379;23;20192;-79
2024/01/16 09:24:15;;;;;;;1.00;0.65;;;20.90;66.40;;;;;;6137055;23;20648;-79
2024/01/16 09:26:42;;;;;;;1.45;0.80;;;20.90;66.30;;;;;;6139715;23;20494;-81
2024/01/16 09:29:10;;;;;;;6.28;1.10;;;20.90;66.50;;;;;;6136968;23;20263;-80
2024/01/16 09:31:36;;;;;;;9.60;0.88;;;20.90;65.40;;;;;;6133350;23;20172;-79
2024/01/16 09:34:05;;;;;;;1.10;0.80;;;20.90;65.90;;;;;;6138071;23;20183;-82
2024/01/16 09:36:32;;;;;;;4.30;0.88;;;20.90;66.00;;;;;;6136179;23;20615;-80
2024/01/16 09:38:59;;;;;;;1.10;0.80;;;20.90;66.00;;;;;;6136572;23;20176;-82
2024/01/16 09:41:25;;;;;;;4.10;1.10;;;20.90;66.10;;;;;;6137544;23;20242;-82
2024/01/16 09:43:52;;;;;;;2.15;0.90;;;20.90;66.30;;;;;;6134077;23;20176;-81
2024/01/16 09:46:23;;;;;;;2.45;1.35;;;20.90;66.30;;;;;;6136678;23;20180;-78
2024/01/16 09:48:52;;;;;;;1.45;0.70;;;20.90;66.40;;;;;;6135853;23;20208;-81
2024/01/16 09:51:20;;;;;;;3.15;0.80;;;20.90;66.50;;;;;;6136621;23;20184;-81
2024/01/16 09:53:46;;;;;;;1.00;0.70;;;21.00;67.40;;;;;;6136670;23;20188;-81
2024/01/16 09:56:16;;;;;;;0.98;0.70;;;21.00;66.60;;;;;;6135897;23;20191;-79
2024/01/16 09:58:44;;;;;;;1.65;0.77;;;21.00;66.70;;;;;;6136725;23;21014;-82
2024/01/16 10:01:12;;;;;;;1.25;0.70;;;21.00;66.90;;;;;;6135795;23;20178;-81
2024/01/16 10:03:40;;;;;;;3.65;0.77;;;21.00;66.80;;;;;;6137181;23;20202;-82
2024/01/16 10:06:08;;;;;;;6.88;0.90;;;21.00;67.20;;;;;;6133762;23;20180;-87
2024/01/16 10:08:36;;;;;;;1.75;0.80;;;21.00;67.20;;;;;;6135570;23;20185;-86
2024/01/16 10:11:03;;;;;;;4.85;1.00;;;21.00;67.30;;;;;;6135575;23;20176;-87
2024/01/16 10:13:30;;;;;;;3.55;1.15;;;21.00;67.50;;;;;;6137322;23;20176;-86
2024/01/16 10:15:57;;;;;;;1.40;0.82;;;21.00;67.50;;;;;;6137836;23;20180;-87
2024/01/16 10:18:25;;;;;;;1.92;0.98;;;21.00;68.40;;;;;;6132720;23;20192;-88
2024/01/16 10:20:53;;;;;;;1.58;0.82;;;21.10;67.90;;;;;;6120408;23;20177;-85
2024/01/16 10:23:24;;;;;;;1.27;0.70;;;21.10;67.90;;;;;;6118679;23;20198;-87
2024/01/16 10:29:18;;;;;;;1.63;0.90;;;21.10;67.80;;;;;;4909103;27;21215;-63
2024/01/16 10:31:59;;;;;;;1.53;1.03;;;21.20;67.90;;;;;;4885497;28;20333;-66
2024/01/16 10:34:52;;;;;;;5.10;1.20;;;21.20;67.90;;;;;;4884704;28;20582;-66
2024/01/16 10:40:37;;;;;;;1.73;1.10;;;21.20;67.80;;;;;;4883407;28;20208;-66
2024/01/16 10:46:17;;;;;;;2.80;1.40;;;21.20;67.50;;;;;;4934866;27;20948;-66
2024/01/16 10:49:06;;;;;;;1.58;1.20;;;21.20;67.30;;;;;;5068854;27;21503;-65
2024/01/16 10:51:49;;;;;;;1.30;1.00;;;21.30;67.40;;;;;;5084422;27;20197;-66
2024/01/16 10:54:16;;;;;;;1.50;1.00;;;21.30;67.30;;;;;;5084460;28;20196;-66
2024/01/16 10:57:05;;;;;;;2.90;1.40;;;21.30;67.10;;;;;;5079528;27;20205;-66
2024/01/16 10:59:55;;;;;;;2.40;1.27;;;21.30;67.00;;;;;;5076948;27;20469;-66
2024/01/16 11:02:41;;;;;;;;;;;;;;;;;;;;;
2024/01/16 11:05:23;;;;;;;1.60;1.07;;;21.30;66.80;;;;;;5073383;27;20456;-66
2024/01/16 11:07:59;;;;;;;1.70;1.10;;;21.30;66.60;;;;;;5080130;27;20481;-66
2024/01/16 11:10:49;;;;;;;2.03;1.40;;;21.30;66.40;;;;;;5080559;28;20462;-66
2024/01/16 11:13:22;;;;;;;1.90;1.10;;;21.30;66.40;;;;;;5084096;28;20552;-66
2024/01/16 11:16:18;;;;;;;1.40;1.10;;;21.30;66.30;;;;;;5080031;27;20537;-66
2024/01/16 11:19:00;;;;;;;2.10;1.00;;;21.30;66.20;;;;;;5082050;27;20511;-66
2024/01/16 11:21:46;;;;;;;1.50;1.10;;;21.30;66.30;;;;;;5083371;28;20912;-66
2024/01/16 11:24:16;;;;;;;2.53;1.20;;;21.30;66.20;;;;;;5075293;27;20879;-65
2024/01/16 11:26:55;;;;;;;4.10;1.60;;;21.30;66.40;;;;;;5084768;28;20569;-66
2024/01/16 11:29:38;;;;;;;1.67;1.20;;;21.30;66.50;;;;;;5085991;28;20464;-69
2024/01/16 11:32:10;;;;;;;1.30;1.13;;;21.40;66.80;;;;;;5082337;27;21332;-69
2024/01/16 11:35:12;;;;;;;1.83;1.33;;;21.40;66.90;;;;;;5081301;27;20458;-71
2024/01/16 11:37:45;;;;;;;3.93;1.43;;;21.50;67.00;;;;;;5082740;28;20912;-67
2024/01/16 11:40:28;;;;;;;2.05;1.15;;;21.50;67.00;;;;;;5068672;28;20454;-68
2024/01/16 11:43:08;;;;;;;2.20;1.60;;;21.50;67.10;;;;;;5067295;28;25547;-66
2024/01/16 11:45:55;;;;;;;1.60;1.13;;;21.50;67.10;;;;;;5070590;28;20533;-66
2024/01/16 11:48:26;;;;;;;4.03;1.47;;;21.60;67.10;;;;;;5072331;28;21033;-68
2024/01/16 11:50:58;;;;;;;2.53;1.20;;;21.60;67.10;;;;;;5068660;28;20462;-67
2024/01/16 11:53:40;;;;;;;2.77;1.37;;;21.60;67.10;;;;;;5068918;28;20970;-65
2024/01/16 11:56:27;;;;;;;1.93;1.40;;;21.60;67.10;;;;;;5071446;28;20461;-70
2024/01/16 11:59:09;;;;;;;2.47;1.63;;;21.70;67.10;;;;;;5065079;28;21037;-67
2024/01/16 12:01:42;;;;;;;3.20;1.40;;;21.70;67.10;;;;;;5067295;28;20450;-65
2024/01/16 12:04:12;;;;;;;1.83;1.57;;;21.70;67.10;;;;;;5068987;28;29934;-63
2024/01/16 12:06:57;;;;;;;2.70;1.60;;;21.70;67.10;;;;;;5065184;28;20739;-66
2024/01/16 12:09:33;;;;;;;3.37;1.37;;;21.70;67.10;;;;;;5070090;28;20504;-65
2024/01/16 12:12:01;;;;;;;3.03;1.47;;;21.80;67.20;;;;;;5066728;28;20913;-63
2024/01/16 12:14:33;;;;;;;2.20;1.53;;;21.80;67.20;;;;;;5069936;28;20597;-66
2024/01/16 12:17:13;;;;;;;3.33;1.70;;;21.80;67.10;;;;;;5071072;28;20461;-64
2024/01/16 12:19:42;;;;;;;4.38;1.83;;;21.80;67.20;;;;;;5072180;28;20493;-64
2024/01/16 12:22:14;;;;;;;2.97;1.57;;;21.80;67.10;;;;;;5066254;28;20210;-66
2024/01/16 12:24:42;;;;;;;4.50;2.47;;;21.80;67.20;;;;;;5061747;28;20812;-67
2024/01/16 12:27:09;;;;;;;7.70;3.30;;;21.60;58.30;;;;;;5065151;28;20492;-69
2024/01/16 12:29:36;;;;;;;5.53;3.30;;;21.20;54.40;;;;;;5066621;28;20470;-68
2024/01/16 12:32:09;;;;;;;10.03;4.40;;;21.00;53.40;;;;;;5065420;28;21082;-69
2024/01/16 12:34:46;;;;;;;6.22;4.20;;;20.90;50.90;;;;;;5067795;28;20463;-66
2024/01/16 12:37:14;;;;;;;9.90;4.53;;;20.60;49.20;;;;;;5065175;28;20495;-70
2024/01/16 12:39:45;;;;;;;8.70;5.15;;;20.40;48.80;;;;;;5060784;28;20470;-74
2024/01/16 12:42:15;;;;;;;7.30;4.78;;;20.30;47.70;;;;;;5067832;28;20729;-68
2024/01/16 12:44:41;;;;;;;8.43;4.17;;;20.20;47.50;;;;;;5060905;28;20553;-73
2024/01/16 12:47:10;;;;;;;5.18;3.40;;;20.20;50.80;;;;;;5062309;28;20459;-75
2024/01/16 12:49:43;;;;;;;5.43;3.10;;;20.50;53.00;;;;;;5061479;28;20197;-71
2024/01/16 12:52:31;;;;;;;4.00;3.17;;;20.70;53.80;;;;;;5062812;27;20205;-76
2024/01/16 12:55:04;;;;;;;5.60;3.13;;;20.90;54.40;;;;;;5063758;28;20689;-75
2024/01/16 12:57:31;;;;;;;5.95;3.20;;;21.00;55.40;;;;;;5063944;28;20555;-74
2024/01/16 13:00:04;;;;;;;5.88;2.90;;;21.10;55.90;;;;;;5060249;28;20201;-73
2024/01/16 13:02:35;;;;;;;5.30;3.08;;;21.20;56.00;;;;;;5066921;28;20200;-73
2024/01/16 13:05:04;;;;;;;3.97;3.07;;;21.20;56.80;;;;;;5061033;28;20201;-72
2024/01/16 13:07:32;;;;;;;4.70;2.35;;;21.30;56.90;;;;;;5060636;28;21199;-73